createdAt,value
2018-12-05T00:01:44.917Z,13.30
2018-12-05T00:04:48.038Z,16.70
2018-12-05T00:07:51.169Z,14.40
2018-12-05T00:10:54.240Z,14.57
2018-12-05T00:13:57.355Z,14.53
2018-12-05T00:17:00.479Z,13.30
2018-12-05T00:20:03.885Z,12.27
2018-12-05T00:23:07.018Z,12.28
2018-12-05T00:26:10.092Z,12.83
2018-12-05T00:29:13.298Z,12.87
2018-12-05T00:32:16.446Z,12.53
2018-12-05T00:35:19.518Z,10.50
2018-12-05T00:38:22.573Z,12.63
2018-12-05T00:41:25.717Z,11.40
2018-12-05T00:44:28.786Z,10.27
2018-12-05T00:47:31.886Z,12.23
2018-12-05T00:50:34.934Z,10.60
2018-12-05T00:53:38.065Z,10.57
2018-12-05T00:56:41.194Z,10.20
2018-12-05T00:59:44.249Z,9.53
2018-12-05T01:02:47.418Z,8.83
2018-12-05T01:05:50.626Z,9.47
2018-12-05T01:08:53.734Z,11.47
2018-12-05T01:11:56.800Z,9.73
2018-12-05T01:14:59.862Z,10.60
2018-12-05T01:18:02.919Z,9.18
2018-12-05T01:21:05.984Z,9.83
2018-12-05T01:24:09.258Z,9.20
2018-12-05T01:27:12.310Z,8.60
2018-12-05T01:30:15.389Z,8.03
2018-12-05T01:33:18.498Z,9.47
2018-12-05T01:36:21.578Z,8.70
2018-12-05T01:39:24.652Z,9.07
2018-12-05T01:42:27.776Z,9.23
2018-12-05T01:45:30.914Z,9.60
2018-12-05T01:48:33.954Z,8.33
2018-12-05T01:51:37.017Z,9.60
2018-12-05T01:54:40.123Z,8.23
2018-12-05T01:57:43.195Z,6.80
2018-12-05T02:00:46.298Z,9.00
2018-12-05T02:03:49.475Z,7.73
2018-12-05T02:06:52.590Z,6.67
2018-12-05T02:09:55.709Z,6.60
2018-12-05T02:12:58.786Z,9.90
2018-12-05T02:16:01.821Z,6.47
2018-12-05T02:19:05.290Z,7.07
2018-12-05T02:22:08.590Z,6.83
2018-12-05T02:25:11.714Z,6.40
2018-12-05T02:28:14.907Z,7.07
2018-12-05T02:31:17.967Z,8.10
2018-12-05T02:34:21.137Z,6.97
2018-12-05T02:37:24.235Z,5.67
2018-12-05T02:40:27.519Z,6.13
2018-12-05T02:43:30.684Z,5.57
2018-12-05T02:46:33.762Z,6.43
2018-12-05T02:49:36.929Z,6.17
2018-12-05T02:52:39.982Z,6.30
2018-12-05T02:55:43.038Z,5.43
2018-12-05T02:58:46.108Z,5.73
2018-12-05T03:01:49.226Z,6.17
2018-12-05T03:04:52.293Z,7.43
2018-12-05T03:07:55.629Z,9.00
2018-12-05T03:10:58.697Z,5.30
2018-12-05T03:14:01.842Z,5.10
2018-12-05T03:17:05.314Z,4.77
2018-12-05T03:20:08.483Z,5.47
2018-12-05T03:23:11.580Z,5.77
2018-12-05T03:26:14.719Z,6.40
2018-12-05T03:29:17.869Z,6.83
2018-12-05T03:32:21.018Z,6.07
2018-12-05T03:35:29.501Z,5.93
2018-12-05T03:38:32.671Z,5.67
2018-12-05T03:41:35.895Z,5.63
2018-12-05T03:44:39.017Z,5.17
2018-12-05T03:47:42.067Z,7.03
2018-12-05T03:50:45.189Z,5.33
2018-12-05T03:53:48.266Z,4.67
2018-12-05T03:56:51.333Z,5.37
2018-12-05T03:59:54.489Z,4.70
2018-12-05T04:02:57.566Z,5.33
2018-12-05T04:06:00.703Z,4.37
2018-12-05T04:09:05.250Z,4.90
2018-12-05T04:12:08.354Z,4.80
2018-12-05T04:15:11.449Z,4.47
2018-12-05T04:18:14.611Z,4.97
2018-12-05T04:21:17.700Z,5.13
2018-12-05T04:24:20.935Z,4.57
2018-12-05T04:27:26.151Z,4.53
2018-12-05T04:30:29.364Z,5.40
2018-12-05T04:33:32.439Z,2.97
2018-12-05T04:36:35.494Z,4.47
2018-12-05T04:39:38.628Z,3.37
2018-12-05T04:42:41.701Z,5.23
2018-12-05T04:45:44.852Z,3.93
2018-12-05T04:48:47.927Z,4.53
2018-12-05T04:51:51.010Z,5.93
2018-12-05T04:54:54.171Z,4.17
2018-12-05T04:57:57.263Z,6.10
2018-12-05T05:01:00.354Z,5.73
2018-12-05T05:04:03.503Z,5.03
2018-12-05T05:07:07.154Z,4.13
2018-12-05T05:10:12.475Z,4.03
2018-12-05T05:13:15.568Z,5.20
2018-12-05T05:16:18.726Z,3.40
2018-12-05T05:19:21.806Z,4.67
2018-12-05T05:22:24.867Z,3.10
2018-12-05T05:25:28.002Z,5.93
2018-12-05T05:28:31.157Z,3.23
2018-12-05T05:31:34.295Z,3.03
2018-12-05T05:34:37.402Z,4.13
2018-12-05T05:37:40.494Z,3.13
2018-12-05T05:40:43.711Z,4.12
2018-12-05T05:43:47.086Z,4.47
2018-12-05T05:46:50.263Z,3.27
2018-12-05T05:49:53.405Z,5.53
2018-12-05T05:52:56.590Z,5.53
2018-12-05T05:55:59.678Z,6.70
2018-12-05T05:59:02.902Z,4.30
2018-12-05T06:02:05.970Z,3.63
2018-12-05T06:05:09.150Z,3.67
2018-12-05T06:08:12.226Z,4.87
2018-12-05T06:11:15.359Z,4.03
2018-12-05T06:14:18.525Z,4.53
2018-12-05T06:17:21.633Z,4.23
2018-12-05T06:20:24.771Z,3.27
2018-12-05T06:23:27.969Z,3.07
2018-12-05T06:26:31.104Z,4.40
2018-12-05T06:29:34.310Z,9.77
2018-12-05T06:32:37.482Z,9.87
2018-12-05T06:35:40.707Z,9.40
2018-12-05T06:38:43.875Z,10.90
2018-12-05T06:41:46.978Z,7.33
2018-12-05T06:44:50.109Z,7.90
2018-12-05T06:47:53.318Z,11.80
2018-12-05T06:50:56.647Z,11.17
2018-12-05T06:53:59.865Z,10.80
2018-12-05T06:57:03.134Z,12.40
2018-12-05T07:00:08.221Z,7.30
2018-12-05T07:03:11.630Z,7.67
2018-12-05T07:06:14.789Z,12.40
2018-12-05T07:09:17.934Z,5.43
2018-12-05T07:12:21.040Z,6.03
2018-12-05T07:15:24.567Z,7.93
2018-12-05T07:18:27.698Z,6.43
2018-12-05T07:21:31.870Z,7.53
2018-12-05T07:24:35.080Z,5.90
2018-12-05T07:27:38.174Z,8.43
2018-12-05T07:30:41.251Z,6.50
2018-12-05T07:33:44.404Z,10.67
2018-12-05T07:36:47.502Z,18.47
2018-12-05T07:39:50.683Z,12.90
2018-12-05T07:42:53.755Z,15.77
2018-12-05T07:45:56.806Z,8.70
2018-12-05T07:48:59.973Z,11.63
2018-12-05T07:52:03.234Z,9.40
2018-12-05T07:55:06.600Z,11.17
2018-12-05T07:58:09.696Z,6.43
2018-12-05T08:01:12.874Z,11.77
2018-12-05T08:04:16.077Z,5.07
2018-12-05T08:07:19.173Z,13.10
2018-12-05T08:10:22.282Z,8.60
2018-12-05T08:13:25.407Z,9.20
2018-12-05T08:16:28.587Z,7.97
2018-12-05T08:19:31.816Z,6.33
2018-12-05T08:22:34.926Z,7.60
2018-12-05T08:25:38.031Z,9.00
2018-12-05T08:28:41.250Z,6.87
2018-12-05T08:31:44.414Z,5.73
2018-12-05T08:34:47.490Z,8.10
2018-12-05T08:37:50.673Z,5.80
2018-12-05T08:40:53.794Z,5.33
2018-12-05T08:43:56.992Z,11.83
2018-12-05T08:47:00.211Z,9.63
2018-12-05T08:50:03.410Z,11.43
2018-12-05T08:53:06.755Z,8.37
2018-12-05T08:56:09.850Z,6.63
2018-12-05T08:59:13.003Z,7.13
2018-12-05T09:02:16.175Z,7.87
2018-12-05T09:05:19.322Z,8.13
2018-12-05T09:08:22.531Z,10.97
2018-12-05T09:11:25.665Z,10.83
2018-12-05T09:14:29.060Z,7.70
2018-12-05T09:17:32.274Z,9.50
2018-12-05T09:20:35.406Z,5.30
2018-12-05T09:23:38.515Z,5.80
2018-12-05T09:26:41.753Z,4.67
2018-12-05T09:29:44.854Z,11.30
2018-12-05T09:32:48.025Z,7.97
2018-12-05T09:35:51.128Z,11.60
2018-12-05T09:38:54.278Z,8.13
2018-12-05T09:41:57.413Z,9.20
2018-12-05T09:45:00.578Z,11.27
2018-12-05T09:48:03.874Z,5.87
2018-12-05T09:51:07.074Z,7.27
2018-12-05T09:54:10.335Z,8.07
2018-12-05T09:57:13.501Z,6.87
2018-12-05T10:00:16.622Z,7.77
2018-12-05T10:03:19.886Z,8.67
2018-12-05T10:06:23.467Z,7.23
2018-12-05T10:09:26.769Z,10.43
2018-12-05T10:12:30.128Z,8.40
2018-12-05T10:15:33.518Z,10.80
2018-12-05T10:18:36.825Z,10.23
2018-12-05T10:21:40.030Z,11.03
2018-12-05T10:24:43.335Z,7.73
2018-12-05T10:27:46.673Z,10.77
2018-12-05T10:30:50.485Z,10.80
2018-12-05T10:34:57.402Z,7.60
2018-12-05T10:38:00.674Z,5.97
2018-12-05T10:41:04.011Z,6.97
2018-12-05T10:44:07.373Z,12.50
2018-12-05T10:47:10.954Z,7.87
2018-12-05T10:50:14.392Z,8.23
2018-12-05T10:53:17.739Z,7.60
2018-12-05T10:56:20.978Z,6.27
2018-12-05T10:59:24.285Z,6.53
2018-12-05T11:02:32.955Z,4.13
2018-12-05T11:05:41.764Z,8.15
2018-12-05T11:08:53.992Z,7.73
2018-12-05T11:12:02.452Z,6.60
2018-12-05T11:15:11.064Z,7.07
2018-12-05T11:18:19.683Z,6.63
2018-12-05T11:21:28.294Z,7.07
2018-12-05T11:24:34.783Z,5.90
2018-12-05T11:27:37.950Z,6.37
2018-12-05T11:30:41.071Z,7.10
2018-12-05T11:33:44.266Z,6.53
2018-12-05T11:36:47.455Z,5.87
2018-12-05T11:39:51.165Z,8.33
2018-12-05T11:42:54.393Z,6.63
2018-12-05T11:45:57.575Z,6.27
2018-12-05T11:49:00.743Z,11.47
2018-12-05T11:52:04.011Z,18.40
2018-12-05T11:55:07.302Z,14.60
2018-12-05T11:58:10.481Z,20.00
2018-12-05T12:01:13.583Z,23.90
2018-12-05T12:04:16.772Z,24.00
2018-12-05T12:07:19.934Z,21.70
2018-12-05T12:10:27.312Z,18.07
2018-12-05T12:13:30.407Z,17.00
2018-12-05T12:16:33.607Z,13.40
2018-12-05T12:19:37.647Z,19.47
2018-12-05T12:22:40.781Z,15.53
2018-12-05T12:25:43.916Z,11.27
2018-12-05T12:28:47.099Z,12.03
2018-12-05T12:31:50.260Z,11.73
2018-12-05T12:34:53.362Z,11.20
2018-12-05T12:37:56.508Z,10.80
2018-12-05T12:40:59.626Z,10.83
2018-12-05T12:44:02.918Z,10.77
2018-12-05T12:47:06.046Z,12.73
2018-12-05T12:50:09.266Z,9.40
2018-12-05T12:53:12.418Z,9.47
2018-12-05T12:56:15.549Z,15.60
2018-12-05T12:59:18.631Z,10.60
2018-12-05T13:02:21.810Z,10.60
2018-12-05T13:05:25.052Z,10.43
2018-12-05T13:08:28.282Z,14.33
2018-12-05T13:11:31.511Z,13.20
2018-12-05T13:14:35.034Z,10.78
2018-12-05T13:17:38.218Z,9.23
2018-12-05T13:20:41.436Z,6.97
2018-12-05T13:23:44.620Z,9.27
2018-12-05T13:26:47.733Z,7.00
2018-12-05T13:29:53.613Z,9.38
2018-12-05T13:32:58.367Z,7.97
2018-12-05T13:36:01.633Z,9.37
2018-12-05T13:39:10.357Z,9.80
2018-12-05T13:42:13.602Z,9.83
2018-12-05T13:45:16.770Z,9.60
2018-12-05T13:48:19.994Z,8.77
2018-12-05T13:51:23.146Z,10.53
2018-12-05T13:54:26.382Z,10.13
2018-12-05T13:57:29.868Z,8.73
2018-12-05T14:00:33.780Z,6.80
2018-12-05T14:03:37.419Z,12.23
2018-12-05T14:06:43.133Z,12.50
2018-12-05T14:09:46.460Z,8.83
2018-12-05T14:12:56.720Z,9.97
2018-12-05T14:15:59.987Z,11.17
2018-12-05T14:19:07.273Z,7.70
2018-12-05T14:22:12.740Z,9.33
2018-12-05T14:25:16.101Z,8.70
2018-12-05T14:28:19.670Z,9.87
2018-12-05T14:31:27.967Z,10.43
2018-12-05T14:34:31.888Z,6.97
2018-12-05T14:37:37.416Z,10.20
2018-12-05T14:40:50.087Z,9.47
2018-12-05T14:43:54.346Z,9.03
2018-12-05T14:46:57.960Z,10.73
2018-12-05T14:50:01.646Z,6.87
2018-12-05T14:53:05.159Z,7.67
2018-12-05T14:56:08.659Z,7.03
2018-12-05T14:59:22.159Z,7.43
2018-12-05T15:02:29.826Z,7.73
2018-12-05T15:05:33.480Z,6.17
2018-12-05T15:08:36.618Z,6.80
2018-12-05T15:11:40.630Z,5.83
2018-12-05T15:14:43.792Z,6.80
2018-12-05T15:17:46.919Z,5.07
2018-12-05T15:20:50.106Z,6.37
2018-12-05T15:23:53.310Z,5.83
2018-12-05T15:26:56.443Z,4.77
2018-12-05T15:29:59.623Z,5.83
2018-12-05T15:33:02.841Z,8.17
2018-12-05T15:36:06.102Z,5.87
2018-12-05T15:39:09.288Z,5.40
2018-12-05T15:42:12.531Z,7.20
2018-12-05T15:45:21.544Z,4.97
2018-12-05T15:48:20.907Z,5.10
2018-12-05T15:51:24.219Z,6.77
2018-12-05T15:54:27.311Z,6.77
2018-12-05T15:57:30.413Z,5.43
2018-12-05T16:00:33.543Z,7.20
2018-12-05T16:03:42.965Z,4.50
2018-12-05T16:06:41.843Z,7.43
2018-12-05T16:09:44.975Z,5.80
2018-12-05T16:12:48.167Z,6.33
2018-12-05T16:15:51.370Z,6.57
2018-12-05T16:18:54.547Z,6.57
2018-12-05T16:21:57.839Z,4.73
2018-12-05T16:25:01.010Z,7.20
2018-12-05T16:28:04.248Z,8.93
2018-12-05T16:31:07.348Z,10.10
2018-12-05T16:34:10.551Z,7.30
2018-12-05T16:37:13.682Z,7.80
2018-12-05T16:40:16.826Z,5.90
2018-12-05T16:43:19.914Z,8.77
2018-12-05T16:46:23.038Z,10.77
2018-12-05T16:49:26.243Z,5.00
2018-12-05T16:52:29.451Z,4.60
2018-12-05T16:55:32.535Z,5.43
2018-12-05T16:58:35.690Z,7.60
2018-12-05T17:01:38.799Z,8.50
2018-12-05T17:04:42.007Z,7.60
2018-12-05T17:07:45.119Z,3.87
2018-12-05T17:10:48.301Z,4.50
2018-12-05T17:13:51.440Z,8.60
2018-12-05T17:16:54.558Z,5.33
2018-12-05T17:19:57.680Z,4.77
2018-12-05T17:23:00.799Z,4.30
2018-12-05T17:26:04.244Z,3.83
2018-12-05T17:29:07.513Z,6.67
2018-12-05T17:32:10.692Z,3.20
2018-12-05T17:35:13.842Z,4.33
2018-12-05T17:38:16.951Z,4.67
2018-12-05T17:41:20.278Z,4.92
2018-12-05T17:44:23.604Z,4.43
2018-12-05T17:47:26.782Z,4.83
2018-12-05T17:50:29.895Z,5.27
2018-12-05T17:53:33.259Z,6.80
2018-12-05T17:56:36.398Z,4.60
2018-12-05T17:59:39.621Z,7.97
2018-12-05T18:02:42.764Z,6.30
2018-12-05T18:05:45.993Z,4.80
2018-12-05T18:08:49.139Z,3.00
2018-12-05T18:11:52.363Z,6.67
2018-12-05T18:14:55.658Z,4.43
2018-12-05T18:17:58.830Z,5.37
2018-12-05T18:21:01.990Z,7.93
2018-12-05T18:24:05.334Z,3.77
2018-12-05T18:27:10.350Z,7.73
2018-12-05T18:30:17.317Z,3.50
2018-12-05T18:33:20.603Z,4.17
2018-12-05T18:36:26.639Z,5.33
2018-12-05T18:39:30.547Z,4.87
2018-12-05T18:42:34.999Z,5.70
2018-12-05T18:45:41.225Z,6.65
2018-12-05T18:48:44.414Z,5.17
2018-12-05T18:51:48.315Z,5.83
2018-12-05T18:54:51.723Z,7.73
2018-12-05T18:57:57.133Z,4.80
2018-12-05T19:01:07.460Z,4.27
2018-12-05T19:04:10.714Z,4.87
2018-12-05T19:07:14.105Z,5.63
2018-12-05T19:10:17.241Z,4.95
2018-12-05T19:13:21.521Z,5.60
2018-12-05T19:16:24.857Z,7.73
2018-12-05T19:19:28.014Z,4.97
2018-12-05T19:22:31.143Z,6.77
2018-12-05T19:25:40.029Z,6.63
2018-12-05T19:28:43.353Z,4.13
2018-12-05T19:31:46.551Z,5.97
2018-12-05T19:34:49.691Z,5.53
2018-12-05T19:37:53.084Z,5.47
2018-12-05T19:40:56.298Z,5.60
2018-12-05T19:43:59.551Z,5.13
2018-12-05T19:47:02.867Z,9.87
2018-12-05T19:50:07.865Z,4.00
2018-12-05T19:53:11.159Z,6.37
2018-12-05T19:56:14.583Z,9.27
2018-12-05T19:59:17.879Z,9.97
2018-12-05T20:02:21.102Z,12.73
2018-12-05T20:05:24.486Z,17.73
2018-12-05T20:08:27.681Z,21.10
2018-12-05T20:11:30.841Z,22.43
2018-12-05T20:14:35.046Z,23.43
2018-12-05T20:17:38.326Z,22.90
2018-12-05T20:20:41.618Z,31.57
2018-12-05T20:23:44.772Z,31.50
2018-12-05T20:26:47.987Z,37.47
2018-12-05T20:29:56.613Z,29.23
2018-12-05T20:33:09.346Z,34.50
2018-12-05T20:36:12.666Z,31.03
2018-12-05T20:39:15.814Z,32.00
2018-12-05T20:42:19.183Z,32.37
2018-12-05T20:45:23.005Z,34.10
2018-12-05T20:48:26.571Z,32.13
2018-12-05T20:51:30.007Z,33.23
2018-12-05T20:54:33.591Z,33.07
2018-12-05T20:57:38.050Z,31.73
2018-12-05T21:00:41.500Z,26.10
2018-12-05T21:03:45.260Z,33.70
2018-12-05T21:06:48.646Z,25.13
2018-12-05T21:09:52.783Z,25.77
2018-12-05T21:12:58.414Z,25.60
2018-12-05T21:16:01.997Z,27.30
2018-12-05T21:19:11.893Z,27.37
2018-12-05T21:22:15.239Z,31.17
2018-12-05T21:25:18.416Z,27.60
2018-12-05T21:28:24.930Z,24.50
2018-12-05T21:33:00.498Z,19.90
2018-12-05T21:36:03.873Z,22.63
2018-12-05T21:39:08.905Z,25.70
2018-12-05T21:42:12.663Z,22.70
2018-12-05T21:45:15.914Z,23.03
2018-12-05T21:48:19.094Z,24.23
2018-12-05T21:51:22.338Z,23.40
2018-12-05T21:54:28.043Z,20.97
2018-12-05T21:57:31.183Z,21.63
2018-12-05T22:00:34.504Z,19.93
2018-12-05T22:03:40.762Z,22.33
2018-12-05T22:06:45.326Z,18.00
2018-12-05T22:09:48.696Z,21.23
2018-12-05T22:12:55.557Z,20.23
2018-12-05T22:15:58.787Z,19.53
2018-12-05T22:19:01.983Z,16.70
2018-12-05T22:22:05.188Z,18.70
2018-12-05T22:25:08.425Z,17.27
2018-12-05T22:28:11.665Z,14.50
2018-12-05T22:31:20.693Z,14.10
2018-12-05T22:34:23.800Z,18.07
2018-12-05T22:37:26.966Z,16.70
2018-12-05T22:40:30.083Z,16.37
2018-12-05T22:43:33.618Z,16.60
2018-12-05T22:46:36.874Z,15.80
2018-12-05T22:49:39.944Z,14.07
2018-12-05T22:52:43.154Z,17.07
2018-12-05T22:55:46.243Z,13.53
2018-12-05T22:58:49.337Z,11.33
2018-12-05T23:01:52.596Z,15.83
2018-12-05T23:04:57.506Z,12.17
2018-12-05T23:08:03.070Z,15.10
2018-12-05T23:11:06.330Z,13.17
2018-12-05T23:14:09.575Z,11.33
2018-12-05T23:17:12.882Z,10.83
2018-12-05T23:20:16.101Z,14.63
2018-12-05T23:23:19.298Z,11.87
2018-12-05T23:26:22.535Z,12.90
2018-12-05T23:29:25.709Z,11.07
2018-12-05T23:32:28.935Z,11.10
2018-12-05T23:35:32.247Z,10.83
2018-12-05T23:38:35.402Z,10.43
2018-12-05T23:41:38.651Z,10.00
2018-12-05T23:44:41.805Z,9.83
2018-12-05T23:47:44.958Z,11.53
2018-12-05T23:50:48.220Z,8.90
2018-12-05T23:53:51.383Z,10.30
2018-12-05T23:56:54.585Z,8.20
2018-12-05T23:59:57.707Z,9.93
